Generic selectors
Exact matches only
Search in title
Search in content
Post Type Selectors
Retour à l'actu

LFPG

METAR

LFPG 050230Z 17009KT 9999 BKN035 14/11 Q1019 NOSIG

TAF

LFPG 042300Z
  • | 0500/0606 18005KT 9999 SCT033 TX21/0514Z TN10/0606Z
  • | BECMG 0504/0506 BKN012
  • | PROB40 TEMPO 0506/0510 BKN007
  • | BECMG 0510/0512 24015G25KT BKN025
  • | BECMG 0520/0522 28010KT